Time;durP1;ratioP1;P1;durP2;ratioP2;P2;SDS_P1;SDS_P2;PMS_P1;PMS_P2;Temp;Humidity;BMP_temperature;BMP_pressure;BME280_temperature;BME280_humidity;BME280_pressure;Samples;Min_cycle;Max_cycle;Signal;HPM_P1;HPM_P2
2023/12/04 00:02:22;;;;;;;30.63;17.55;;;-1.50;99.90;;;;;;4944217;29;20112;-53
2023/12/04 00:04:47;;;;;;;27.52;16.15;;;-1.60;99.90;;;;;;4934828;29;20031;-48
2023/12/04 00:07:13;;;;;;;30.77;16.25;;;-1.70;99.90;;;;;;4950635;29;20039;-55
2023/12/04 00:09:38;;;;;;;28.88;16.85;;;-1.70;99.90;;;;;;4944766;28;20031;-61
2023/12/04 00:12:04;;;;;;;27.30;17.08;;;-1.70;99.90;;;;;;4933025;29;20023;-56
2023/12/04 00:14:30;;;;;;;33.70;17.85;;;-1.70;99.90;;;;;;4932962;29;20502;-49
2023/12/04 00:16:55;;;;;;;28.45;15.40;;;-1.60;99.90;;;;;;4940925;28;20039;-57
2023/12/04 00:19:21;;;;;;;30.45;17.85;;;-1.60;99.90;;;;;;4971480;22;20417;-60
2023/12/04 00:21:46;;;;;;;32.15;16.45;;;-1.50;99.90;;;;;;4953089;28;20077;-56
2023/12/04 00:24:12;;;;;;;28.92;16.73;;;-1.50;99.90;;;;;;4954259;28;20077;-58
2023/12/04 00:26:37;;;;;;;27.70;16.05;;;-1.40;99.90;;;;;;4966771;28;20482;-57
2023/12/04 00:29:03;;;;;;;27.58;16.08;;;-1.40;99.90;;;;;;4947885;28;20038;-57
2023/12/04 00:31:28;;;;;;;29.67;17.17;;;-1.50;99.90;;;;;;4924269;28;20042;-56
2023/12/04 00:33:54;;;;;;;28.92;16.23;;;-1.50;99.90;;;;;;4940883;28;20395;-62
2023/12/04 00:36:19;;;;;;;30.92;18.25;;;-1.60;99.90;;;;;;4916696;28;20051;-59
2023/12/04 00:38:45;;;;;;;32.05;17.70;;;-1.60;99.90;;;;;;5009414;28;20020;-61
2023/12/04 00:41:11;;;;;;;30.63;17.13;;;-1.70;99.90;;;;;;4916548;28;20074;-62
2023/12/04 00:43:36;;;;;;;29.63;15.88;;;-1.70;99.90;;;;;;4929900;28;20032;-62
2023/12/04 00:46:02;;;;;;;28.30;17.02;;;-1.70;99.90;;;;;;4942842;28;20024;-60
2023/12/04 00:48:27;;;;;;;30.63;16.38;;;-1.80;99.90;;;;;;4952884;28;20055;-60
2023/12/04 00:50:54;;;;;;;26.50;17.08;;;-1.90;99.90;;;;;;4950578;28;20023;-59
2023/12/04 00:53:20;;;;;;;28.17;16.52;;;-2.00;99.90;;;;;;4942553;29;20040;-59
2023/12/04 00:55:45;;;;;;;27.25;16.58;;;-2.00;99.90;;;;;;4929806;29;20027;-56
2023/12/04 00:58:11;;;;;;;30.48;16.77;;;-2.10;99.90;;;;;;4940008;29;20015;-55
2023/12/04 01:00:36;;;;;;;31.38;16.52;;;-2.10;99.90;;;;;;4922370;29;20024;-52
2023/12/04 01:03:02;;;;;;;27.27;15.25;;;-2.10;99.90;;;;;;4947596;29;20097;-52
2023/12/04 01:05:27;;;;;;;35.10;17.60;;;-2.10;99.90;;;;;;4920423;29;20041;-52
2023/12/04 01:07:53;;;;;;;25.10;15.07;;;-2.10;99.90;;;;;;4932339;29;20055;-54
2023/12/04 01:10:19;;;;;;;27.80;16.35;;;-2.10;99.90;;;;;;4946404;28;20031;-51
2023/12/04 01:12:45;;;;;;;27.17;17.35;;;-2.00;99.90;;;;;;4941073;29;20440;-51
2023/12/04 01:15:10;;;;;;;31.15;18.05;;;-2.00;99.90;;;;;;5014669;28;20182;-51
2023/12/04 01:17:36;;;;;;;141.38;64.72;;;-2.00;99.90;;;;;;4943990;29;20047;-57
2023/12/04 01:20:02;;;;;;;108.30;52.20;;;-2.00;99.90;;;;;;4940959;29;20124;-45
2023/12/04 01:22:27;;;;;;;48.85;24.30;;;-2.00;99.90;;;;;;4931296;28;20028;-44
2023/12/04 01:24:53;;;;;;;32.60;17.92;;;-2.00;99.90;;;;;;4932354;28;20032;-47
2023/12/04 01:27:18;;;;;;;31.73;16.27;;;-1.90;99.90;;;;;;4932525;28;20107;-50
2023/12/04 01:29:44;;;;;;;27.45;14.82;;;-1.90;99.90;;;;;;4915414;28;20028;-50
2023/12/04 01:32:09;;;;;;;30.67;16.45;;;-1.90;99.90;;;;;;4932168;28;20027;-45
2023/12/04 01:34:35;;;;;;;27.48;15.82;;;-1.90;99.90;;;;;;4932512;28;20027;-49
2023/12/04 01:37:00;;;;;;;27.40;15.75;;;-2.00;99.90;;;;;;4932318;28;20395;-46
2023/12/04 01:39:26;;;;;;;26.95;15.48;;;-1.90;99.90;;;;;;4915295;28;20032;-52
2023/12/04 01:41:51;;;;;;;29.70;16.52;;;-1.90;99.90;;;;;;4899129;28;20024;-46
2023/12/04 01:44:17;;;;;;;28.55;16.23;;;-2.00;99.90;;;;;;4932210;28;20150;-52
2023/12/04 01:46:43;;;;;;;30.23;17.55;;;-2.00;99.90;;;;;;4932240;28;20491;-48
2023/12/04 01:49:09;;;;;;;31.25;17.75;;;-2.00;99.90;;;;;;4915233;28;20031;-46
2023/12/04 01:51:35;;;;;;;30.35;16.38;;;-1.90;99.90;;;;;;4915132;28;20043;-47
2023/12/04 01:54:04;;;;;;;27.58;16.45;;;-1.90;99.90;;;;;;4932287;28;20399;-48
2023/12/04 01:56:30;;;;;;;25.77;15.70;;;-1.90;99.90;;;;;;4932025;28;20028;-46
2023/12/04 01:58:55;;;;;;;25.63;15.60;;;-2.00;99.90;;;;;;4932001;28;20499;-49
2023/12/04 02:01:23;;;;;;;28.08;16.23;;;-1.90;99.90;;;;;;4914771;28;20431;-47
2023/12/04 02:03:49;;;;;;;28.80;15.77;;;-1.90;99.90;;;;;;4931863;28;20111;-45
2023/12/04 02:06:16;;;;;;;33.75;17.55;;;-2.00;99.90;;;;;;4931804;29;20372;-47
2023/12/04 02:08:42;;;;;;;34.47;17.27;;;-1.90;99.90;;;;;;4914669;29;20042;-45
2023/12/04 02:11:08;;;;;;;29.13;17.52;;;-1.90;99.90;;;;;;4914486;28;20028;-48
2023/12/04 02:13:33;;;;;;;31.15;16.17;;;-1.90;99.90;;;;;;4915049;28;20487;-46
2023/12/04 02:16:02;;;;;;;27.35;16.75;;;-1.90;99.90;;;;;;4931765;28;20038;-46
2023/12/04 02:18:28;;;;;;;30.95;17.55;;;-2.00;99.90;;;;;;4914516;28;20025;-49
2023/12/04 02:20:54;;;;;;;29.30;16.92;;;-2.00;99.90;;;;;;4931367;28;20094;-46
2023/12/04 02:23:19;;;;;;;32.85;17.50;;;-2.10;99.90;;;;;;4914657;29;20228;-50
2023/12/04 02:25:45;;;;;;;34.03;15.93;;;-2.10;99.90;;;;;;4931657;28;20039;-45
2023/12/04 02:28:15;;;;;;;33.42;18.02;;;-2.10;99.90;;;;;;4933471;28;20042;-50
2023/12/04 02:30:43;;;;;;;27.83;16.48;;;-2.00;99.90;;;;;;4917638;28;20506;-46
2023/12/04 02:33:11;;;;;;;30.88;17.15;;;-2.00;99.90;;;;;;4935195;28;20035;-50
2023/12/04 02:35:39;;;;;;;33.72;17.73;;;-2.00;99.90;;;;;;4935219;28;20035;-51
2023/12/04 02:38:05;;;;;;;31.77;18.55;;;-1.90;99.90;;;;;;4934910;28;20110;-47
2023/12/04 02:40:30;;;;;;;28.33;16.35;;;-1.90;99.90;;;;;;4917710;28;20515;-48
2023/12/04 02:42:56;;;;;;;36.42;17.42;;;-2.00;99.90;;;;;;4935386;28;20024;-46
2023/12/04 02:45:21;;;;;;;29.70;17.13;;;-1.90;99.90;;;;;;4918051;28;20063;-47
2023/12/04 02:47:47;;;;;;;30.40;16.85;;;-2.00;99.90;;;;;;4935162;28;20395;-49
2023/12/04 02:50:12;;;;;;;28.63;16.40;;;-2.10;99.90;;;;;;4917864;28;20031;-44
2023/12/04 02:52:38;;;;;;;30.83;17.00;;;-2.10;99.90;;;;;;4918092;28;20020;-47
2023/12/04 02:55:04;;;;;;;29.80;17.15;;;-2.10;99.90;;;;;;4935133;28;20059;-50
2023/12/04 02:57:29;;;;;;;28.83;16.58;;;-2.20;99.90;;;;;;4918024;28;20028;-48
2023/12/04 02:59:55;;;;;;;28.17;17.10;;;-2.30;99.90;;;;;;4935192;28;20082;-47
2023/12/04 03:02:20;;;;;;;26.30;15.70;;;-2.30;99.90;;;;;;4934942;28;20376;-46
2023/12/04 03:04:46;;;;;;;28.15;16.25;;;-2.40;99.90;;;;;;4917795;28;20027;-45
2023/12/04 03:07:12;;;;;;;28.90;15.75;;;-2.50;99.90;;;;;;4917881;28;20028;-49
2023/12/04 03:09:37;;;;;;;28.25;16.63;;;-2.40;99.90;;;;;;4917672;28;20089;-45
2023/12/04 03:12:03;;;;;;;31.73;16.73;;;-2.40;99.90;;;;;;4917569;28;20020;-45
2023/12/04 03:14:29;;;;;;;30.88;17.70;;;-2.40;99.90;;;;;;4934843;28;20100;-45
2023/12/04 03:16:54;;;;;;;27.38;16.10;;;-2.40;99.90;;;;;;4934686;28;20024;-45
2023/12/04 03:19:20;;;;;;;29.92;16.80;;;-2.40;99.90;;;;;;4917536;28;20122;-45
2023/12/04 03:21:45;;;;;;;30.67;17.20;;;-2.40;99.90;;;;;;4934673;28;20084;-45
2023/12/04 03:24:11;;;;;;;27.65;16.50;;;-2.40;99.90;;;;;;4934748;28;20043;-45
2023/12/04 03:26:37;;;;;;;31.40;16.55;;;-2.50;99.90;;;;;;4934579;28;20436;-51
2023/12/04 03:29:02;;;;;;;30.73;17.15;;;-2.40;99.90;;;;;;4934302;28;20032;-51
2023/12/04 03:31:28;;;;;;;29.95;16.63;;;-2.40;99.90;;;;;;4934128;28;20058;-48
2023/12/04 03:33:54;;;;;;;35.47;17.92;;;-2.50;99.90;;;;;;4934096;28;20494;-48
2023/12/04 03:36:19;;;;;;;28.38;16.70;;;-2.60;99.90;;;;;;4917136;28;20392;-46
2023/12/04 03:38:45;;;;;;;30.30;16.75;;;-2.50;99.90;;;;;;4934003;28;20086;-49
2023/12/04 03:41:17;;;;;;;28.85;15.95;;;-2.60;99.90;;;;;;4933904;28;20027;-45
2023/12/04 03:43:42;;;;;;;26.73;15.40;;;-2.60;99.90;;;;;;4935036;28;20028;-46
2023/12/04 03:46:08;;;;;;;29.80;16.73;;;-2.70;99.90;;;;;;4935695;28;20097;-46
2023/12/04 03:48:34;;;;;;;29.67;16.13;;;-2.70;99.90;;;;;;4934131;28;20038;-45
2023/12/04 03:51:00;;;;;;;26.52;15.82;;;-2.80;99.90;;;;;;4934204;28;20024;-45
2023/12/04 03:53:26;;;;;;;28.90;16.45;;;-2.80;99.90;;;;;;4934425;28;20031;-49
2023/12/04 03:55:52;;;;;;;27.75;16.27;;;-2.80;99.90;;;;;;4917276;28;20034;-44
2023/12/04 03:58:17;;;;;;;25.70;16.63;;;-2.90;99.90;;;;;;4934264;29;20486;-50
2023/12/04 04:00:43;;;;;;;26.02;15.57;;;-2.80;99.90;;;;;;4917086;28;20031;-43
2023/12/04 04:03:09;;;;;;;29.10;15.73;;;-2.80;99.90;;;;;;4917159;28;20015;-50
2023/12/04 04:05:35;;;;;;;29.75;16.35;;;-2.80;99.90;;;;;;4933825;28;20028;-47
2023/12/04 04:08:01;;;;;;;25.73;15.73;;;-2.90;99.90;;;;;;4933710;28;20042;-47
2023/12/04 04:10:26;;;;;;;28.73;16.65;;;-2.90;99.90;;;;;;4933830;28;20050;-45
2023/12/04 04:12:52;;;;;;;27.67;16.67;;;-2.90;99.90;;;;;;4933770;28;20078;-47
2023/12/04 04:15:18;;;;;;;28.63;16.42;;;-2.80;99.90;;;;;;4933789;28;20062;-45
2023/12/04 04:17:43;;;;;;;26.50;14.63;;;-2.80;99.90;;;;;;4934010;28;20074;-44
2023/12/04 04:20:10;;;;;;;29.23;15.23;;;-2.80;99.90;;;;;;4916469;28;20038;-47
2023/12/04 04:22:37;;;;;;;34.85;16.50;;;-2.80;99.90;;;;;;4933069;28;20020;-47
2023/12/04 04:25:08;;;;;;;27.30;16.40;;;-2.80;99.90;;;;;;4916297;28;20422;-52
2023/12/04 04:27:34;;;;;;;27.95;16.15;;;-2.70;99.90;;;;;;4933262;28;20055;-47
2023/12/04 04:30:00;;;;;;;25.95;15.32;;;-2.70;99.90;;;;;;4933224;28;20063;-47
2023/12/04 04:32:25;;;;;;;28.98;16.50;;;-2.70;99.90;;;;;;4932835;28;20031;-50
2023/12/04 04:34:51;;;;;;;27.27;15.68;;;-2.70;99.90;;;;;;4933629;28;20106;-44
2023/12/04 04:37:16;;;;;;;24.60;14.93;;;-2.60;99.90;;;;;;4916322;28;20545;-49
2023/12/04 04:39:42;;;;;;;28.52;16.08;;;-2.50;99.90;;;;;;4933027;28;20071;-50
2023/12/04 04:42:07;;;;;;;23.80;14.65;;;-2.40;99.90;;;;;;4932816;28;20027;-52
2023/12/04 04:44:33;;;;;;;27.40;15.27;;;-2.40;99.90;;;;;;4933070;28;20399;-45
2023/12/04 04:46:58;;;;;;;24.92;15.13;;;-2.20;99.90;;;;;;4933056;28;20483;-51
2023/12/04 04:49:24;;;;;;;30.05;15.93;;;-2.20;99.90;;;;;;4932747;28;20513;-48
2023/12/04 04:51:49;;;;;;;20.98;13.68;;;-2.20;99.90;;;;;;4931462;28;20050;-46
2023/12/04 04:54:15;;;;;;;24.60;14.95;;;-2.20;99.90;;;;;;4933056;28;20376;-47
2023/12/04 04:56:40;;;;;;;23.58;14.45;;;-2.20;99.90;;;;;;4915878;28;20036;-47
2023/12/04 04:59:06;;;;;;;25.98;15.13;;;-2.30;99.90;;;;;;4932759;28;20082;-50
2023/12/04 05:01:31;;;;;;;24.55;14.68;;;-2.30;99.90;;;;;;4932427;28;20028;-46
2023/12/04 05:03:57;;;;;;;30.30;16.45;;;-2.30;99.90;;;;;;4932791;28;20074;-47
2023/12/04 05:06:23;;;;;;;24.65;14.40;;;-2.20;99.90;;;;;;4932667;28;20068;-50
2023/12/04 05:08:52;;;;;;;26.13;14.90;;;-2.20;99.90;;;;;;4932482;28;20095;-48
2023/12/04 05:11:17;;;;;;;27.42;14.57;;;-2.20;99.90;;;;;;4932260;28;20050;-48
2023/12/04 05:13:44;;;;;;;27.83;15.05;;;-2.10;99.90;;;;;;4932601;29;20067;-52
2023/12/04 05:16:10;;;;;;;26.02;15.73;;;-2.10;99.90;;;;;;4932564;28;20058;-49
2023/12/04 05:18:35;;;;;;;27.80;15.38;;;-2.10;99.90;;;;;;4932355;29;20023;-50
2023/12/04 05:21:01;;;;;;;24.98;15.07;;;-2.10;99.90;;;;;;4932701;28;20036;-52
2023/12/04 05:23:26;;;;;;;27.48;14.52;;;-2.10;99.90;;;;;;4932508;28;20028;-50
2023/12/04 05:25:52;;;;;;;28.85;15.60;;;-2.10;99.90;;;;;;4932564;28;20035;-46
2023/12/04 05:28:17;;;;;;;24.20;15.27;;;-2.00;99.90;;;;;;4932380;28;20450;-50
2023/12/04 05:30:43;;;;;;;28.88;16.35;;;-2.10;99.90;;;;;;4914903;28;20114;-49
2023/12/04 05:33:08;;;;;;;25.20;14.80;;;-2.10;99.90;;;;;;4932304;28;20027;-47
2023/12/04 05:35:35;;;;;;;26.75;15.63;;;-2.10;99.90;;;;;;4932105;28;20589;-49
2023/12/04 05:38:01;;;;;;;24.83;14.63;;;-2.20;99.90;;;;;;4932273;28;20074;-50
2023/12/04 05:40:27;;;;;;;27.83;15.75;;;-2.20;99.90;;;;;;4931941;28;20020;-49
2023/12/04 05:42:52;;;;;;;25.75;14.93;;;-2.30;99.90;;;;;;4915010;28;20023;-46
2023/12/04 05:45:18;;;;;;;24.63;14.43;;;-2.30;99.90;;;;;;4932148;28;20076;-50
2023/12/04 05:47:43;;;;;;;29.00;15.77;;;-2.30;99.90;;;;;;4932171;28;20035;-47
2023/12/04 05:50:09;;;;;;;26.20;15.35;;;-2.30;99.90;;;;;;4931877;28;20319;-45
2023/12/04 05:52:34;;;;;;;25.15;15.23;;;-2.30;99.90;;;;;;4914770;28;20070;-46
2023/12/04 05:55:00;;;;;;;23.83;15.15;;;-2.30;99.90;;;;;;4931975;28;20027;-48
2023/12/04 05:57:25;;;;;;;24.17;15.57;;;-2.30;99.90;;;;;;4932035;28;20491;-47
2023/12/04 05:59:51;;;;;;;24.83;14.63;;;-2.30;99.90;;;;;;4915292;28;20028;-45
2023/12/04 06:02:16;;;;;;;33.70;18.15;;;-2.30;99.90;;;;;;4931991;28;20039;-47
2023/12/04 06:04:42;;;;;;;28.35;17.05;;;-2.40;99.90;;;;;;4914994;28;20394;-45
2023/12/04 06:07:07;;;;;;;26.63;14.80;;;-2.50;99.90;;;;;;4932395;28;20327;-43
2023/12/04 06:09:33;;;;;;;30.30;16.33;;;-2.40;99.90;;;;;;4915372;28;20390;-46
2023/12/04 06:12:04;;;;;;;28.55;15.93;;;-2.40;99.90;;;;;;4931934;28;20028;-46
2023/12/04 06:14:30;;;;;;;29.02;17.35;;;-2.30;99.90;;;;;;4932233;29;20484;-49
2023/12/04 06:16:56;;;;;;;25.35;15.43;;;-2.30;99.90;;;;;;4932901;29;20034;-45
2023/12/04 06:19:21;;;;;;;27.90;16.70;;;-2.40;99.90;;;;;;4960984;22;20058;-47
2023/12/04 06:21:47;;;;;;;28.05;16.75;;;-2.30;99.90;;;;;;4969119;28;20027;-50
2023/12/04 06:24:12;;;;;;;26.10;15.38;;;-2.30;99.90;;;;;;4970454;28;20060;-46
2023/12/04 06:26:43;;;;;;;32.78;17.42;;;-2.30;99.90;;;;;;4969921;28;20529;-45
2023/12/04 06:29:09;;;;;;;28.73;15.90;;;-2.20;99.90;;;;;;4952533;28;20027;-47
2023/12/04 06:31:34;;;;;;;26.35;15.60;;;-2.20;99.90;;;;;;4951890;28;20034;-47
2023/12/04 06:34:00;;;;;;;28.55;16.58;;;-2.20;99.90;;;;;;4969656;28;20467;-44
2023/12/04 06:36:29;;;;;;;27.10;15.38;;;-2.10;99.90;;;;;;4970056;28;20038;-46
2023/12/04 06:38:56;;;;;;;27.30;16.33;;;-2.30;99.90;;;;;;4969659;28;20027;-45
2023/12/04 06:41:21;;;;;;;31.45;17.15;;;-2.40;99.90;;;;;;4952126;28;20120;-44
2023/12/04 06:43:47;;;;;;;31.05;16.13;;;-2.50;99.90;;;;;;4969555;28;20094;-47
2023/12/04 06:46:15;;;;;;;30.25;15.88;;;-2.50;99.90;;;;;;4969447;28;20023;-44
2023/12/04 06:48:43;;;;;;;27.50;16.58;;;-2.60;99.90;;;;;;4969620;28;20038;-48
2023/12/04 06:51:08;;;;;;;26.25;15.27;;;-2.70;99.90;;;;;;4969244;28;20023;-47
2023/12/04 06:53:34;;;;;;;29.08;15.02;;;-2.70;99.90;;;;;;4969418;28;20031;-52
2023/12/04 06:55:59;;;;;;;28.50;17.30;;;-2.80;99.90;;;;;;4969430;28;20035;-46
2023/12/04 06:58:25;;;;;;;27.45;15.65;;;-2.90;99.90;;;;;;4969555;28;20386;-47
2023/12/04 07:00:51;;;;;;;30.58;17.42;;;-2.90;99.90;;;;;;4951666;28;20025;-47
2023/12/04 07:03:16;;;;;;;25.10;15.30;;;-2.90;99.90;;;;;;4969489;28;20076;-50
2023/12/04 07:05:41;;;;;;;27.38;16.20;;;-2.80;99.90;;;;;;4969384;28;20057;-48
2023/12/04 07:08:07;;;;;;;27.15;15.05;;;-2.70;99.90;;;;;;4969709;28;20042;-46
2023/12/04 07:10:33;;;;;;;28.02;16.27;;;-2.50;99.90;;;;;;4969058;28;20412;-44
2023/12/04 07:12:58;;;;;;;26.83;15.60;;;-2.40;99.90;;;;;;4969352;28;20401;-48
2023/12/04 07:15:24;;;;;;;28.73;15.75;;;-2.40;99.90;;;;;;4971073;28;20374;-46
2023/12/04 07:17:49;;;;;;;28.90;16.73;;;-2.40;99.90;;;;;;4972583;28;20058;-45
2023/12/04 07:20:14;;;;;;;30.40;17.65;;;-2.30;99.90;;;;;;4972411;28;20031;-45
2023/12/04 07:22:40;;;;;;;26.40;15.60;;;-2.30;99.90;;;;;;4972485;28;20089;-47
2023/12/04 07:25:07;;;;;;;29.73;16.70;;;-2.30;99.90;;;;;;4955331;28;20102;-46
2023/12/04 07:27:33;;;;;;;26.58;15.30;;;-2.30;99.90;;;;;;4972884;28;20452;-47
2023/12/04 07:29:59;;;;;;;30.58;15.50;;;-2.40;99.90;;;;;;4972336;28;20470;-50
2023/12/04 07:32:25;;;;;;;26.33;14.52;;;-2.30;99.90;;;;;;4972151;28;20019;-47
2023/12/04 07:34:50;;;;;;;31.05;17.23;;;-2.30;99.90;;;;;;4972305;28;20040;-45
2023/12/04 07:37:16;;;;;;;24.55;14.68;;;-2.30;99.90;;;;;;4972261;28;20496;-45
2023/12/04 07:39:45;;;;;;;32.22;16.15;;;-2.20;99.90;;;;;;4972237;28;20023;-49
2023/12/04 07:42:11;;;;;;;25.45;13.77;;;-2.10;99.90;;;;;;4972512;28;20145;-45
2023/12/04 07:44:37;;;;;;;24.75;14.65;;;-2.10;99.90;;;;;;4972157;28;20448;-45
2023/12/04 07:47:03;;;;;;;29.17;15.90;;;-2.00;99.90;;;;;;4972397;28;20023;-42
2023/12/04 07:49:28;;;;;;;25.35;14.38;;;-2.00;99.90;;;;;;4971977;28;20065;-46
2023/12/04 07:51:53;;;;;;;23.80;14.27;;;-2.00;99.90;;;;;;4972151;28;20031;-46
2023/12/04 07:54:19;;;;;;;27.70;15.27;;;-1.90;99.90;;;;;;4972064;28;20033;-45
2023/12/04 07:56:45;;;;;;;24.52;14.75;;;-1.80;99.90;;;;;;4972234;28;20382;-46
2023/12/04 07:59:10;;;;;;;26.15;14.70;;;-1.80;99.90;;;;;;4972483;28;20027;-50
2023/12/04 08:01:36;;;;;;;24.13;13.50;;;-1.80;99.90;;;;;;4972634;28;20019;-45
2023/12/04 08:04:02;;;;;;;28.98;16.05;;;-1.70;99.90;;;;;;4972586;28;20470;-45
2023/12/04 08:06:28;;;;;;;24.02;14.38;;;-1.70;99.90;;;;;;4972401;28;20027;-45
2023/12/04 08:08:54;;;;;;;23.48;13.98;;;-1.60;99.90;;;;;;4971863;28;20049;-46
2023/12/04 08:11:19;;;;;;;24.50;14.77;;;-1.50;99.90;;;;;;4971550;28;20034;-45
2023/12/04 08:13:45;;;;;;;24.85;14.45;;;-1.50;99.90;;;;;;4971991;28;20023;-45
2023/12/04 08:16:19;;;;;;;26.05;14.55;;;-1.50;99.90;;;;;;4971980;28;20035;-47
2023/12/04 08:18:45;;;;;;;21.73;14.05;;;-1.50;99.90;;;;;;4972231;28;20026;-49
2023/12/04 08:21:11;;;;;;;28.55;15.32;;;-1.50;99.90;;;;;;4971190;28;20031;-46
2023/12/04 08:23:37;;;;;;;24.17;13.73;;;-1.50;99.90;;;;;;4972349;28;20018;-46
2023/12/04 08:26:03;;;;;;;29.02;13.95;;;-1.40;99.90;;;;;;4971317;28;20034;-46
2023/12/04 08:28:29;;;;;;;24.75;14.75;;;-1.40;99.90;;;;;;4954029;28;20039;-46
2023/12/04 08:30:54;;;;;;;25.70;13.05;;;-1.50;99.90;;;;;;4971277;28;20033;-45
2023/12/04 08:33:20;;;;;;;25.70;14.15;;;-1.40;99.90;;;;;;4971700;28;20031;-49
2023/12/04 08:35:47;;;;;;;24.35;14.40;;;-1.30;99.90;;;;;;4971748;28;20031;-49
2023/12/04 08:38:12;;;;;;;22.52;12.85;;;-1.40;99.90;;;;;;4954607;28;20030;-46
2023/12/04 08:40:38;;;;;;;25.38;14.43;;;-1.30;99.90;;;;;;4971088;28;20027;-51
2023/12/04 08:43:03;;;;;;;24.15;13.68;;;-1.30;99.90;;;;;;4953927;28;20031;-47
2023/12/04 08:45:29;;;;;;;26.30;14.75;;;-1.20;99.90;;;;;;4971801;28;20109;-47
2023/12/04 08:47:55;;;;;;;21.67;13.80;;;-1.20;99.90;;;;;;4971746;28;20035;-47
2023/12/04 08:50:21;;;;;;;21.48;12.52;;;-1.10;99.90;;;;;;4971531;28;20134;-45
2023/12/04 08:52:46;;;;;;;23.70;13.77;;;-1.10;99.90;;;;;;4953951;28;20031;-48
2023/12/04 08:55:12;;;;;;;23.88;13.45;;;-1.10;99.90;;;;;;4971363;28;20035;-47
2023/12/04 08:57:38;;;;;;;21.75;14.18;;;-1.10;99.90;;;;;;4971296;28;20050;-45
2023/12/04 09:00:04;;;;;;;27.80;14.63;;;-1.00;99.90;;;;;;4971417;28;20019;-45
2023/12/04 09:02:30;;;;;;;21.73;12.85;;;-0.90;99.90;;;;;;4971100;28;20027;-47
2023/12/04 09:04:56;;;;;;;20.20;12.35;;;-0.80;99.90;;;;;;4971201;28;20361;-47
2023/12/04 09:07:21;;;;;;;22.85;12.55;;;-0.70;99.90;;;;;;4971040;28;20030;-46
2023/12/04 09:09:47;;;;;;;27.23;14.18;;;-0.60;99.90;;;;;;4970871;28;20026;-47
2023/12/04 09:12:13;;;;;;;24.60;14.50;;;-0.40;99.90;;;;;;4970737;28;20092;-45
2023/12/04 09:14:38;;;;;;;19.65;12.20;;;-0.40;99.90;;;;;;4970857;28;20027;-47
2023/12/04 09:17:04;;;;;;;22.95;13.52;;;-0.40;99.90;;;;;;4970773;28;20106;-43
2023/12/04 09:19:30;;;;;;;24.45;13.57;;;-0.40;99.90;;;;;;4970765;28;20405;-48
2023/12/04 09:21:57;;;;;;;19.60;12.98;;;-0.40;99.90;;;;;;4970255;28;20053;-47
2023/12/04 09:24:23;;;;;;;22.83;14.60;;;-0.40;99.90;;;;;;4970730;28;20071;-45
2023/12/04 09:26:49;;;;;;;22.88;14.45;;;-0.40;99.90;;;;;;4970633;28;20019;-47
2023/12/04 09:29:16;;;;;;;26.10;13.40;;;-0.40;99.90;;;;;;4970954;28;20023;-45
2023/12/04 09:31:41;;;;;;;21.35;13.38;;;-0.30;99.90;;;;;;4970886;28;20038;-45
2023/12/04 09:34:08;;;;;;;19.13;13.35;;;-0.40;99.90;;;;;;4970521;28;20023;-47
2023/12/04 09:36:34;;;;;;;22.92;13.07;;;-0.40;99.90;;;;;;4970567;28;20031;-50
2023/12/04 09:38:59;;;;;;;23.95;13.68;;;-0.40;99.90;;;;;;4969944;28;20084;-46
2023/12/04 09:41:25;;;;;;;20.60;13.32;;;-0.50;99.90;;;;;;4953172;28;20015;-46
2023/12/04 09:43:51;;;;;;;21.75;13.52;;;-0.50;99.90;;;;;;4970973;28;20019;-46
2023/12/04 09:46:18;;;;;;;26.60;13.55;;;-0.40;99.90;;;;;;4970509;28;20034;-46
2023/12/04 09:48:43;;;;;;;26.17;13.48;;;-0.40;99.90;;;;;;4970410;28;20110;-49
2023/12/04 09:51:09;;;;;;;25.70;14.20;;;-0.40;99.90;;;;;;4970013;28;20076;-44
2023/12/04 09:53:36;;;;;;;24.42;13.48;;;-0.30;99.90;;;;;;4970942;28;20544;-45
2023/12/04 09:56:03;;;;;;;27.83;14.48;;;-0.30;99.90;;;;;;4970494;28;20401;-47
2023/12/04 09:58:32;;;;;;;26.95;14.40;;;-0.30;99.90;;;;;;4970568;28;20055;-48
2023/12/04 10:01:01;;;;;;;25.85;13.13;;;-0.20;99.90;;;;;;4970220;28;20023;-46
2023/12/04 10:03:27;;;;;;;21.55;14.55;;;-0.20;99.90;;;;;;4953266;28;20030;-52
2023/12/04 10:05:54;;;;;;;23.52;15.20;;;-0.30;99.90;;;;;;4970355;28;20498;-47
2023/12/04 10:08:19;;;;;;;25.38;14.18;;;-0.30;99.90;;;;;;4970218;28;20039;-47
2023/12/04 10:10:45;;;;;;;23.63;13.70;;;-0.10;99.90;;;;;;4969686;28;20079;-52
2023/12/04 10:13:11;;;;;;;22.80;13.73;;;-0.20;99.90;;;;;;4970242;28;20026;-48
2023/12/04 10:15:47;;;;;;;25.05;15.32;;;-0.20;99.90;;;;;;4963150;28;20034;-45
2023/12/04 10:18:30;;;;;;;25.67;15.23;;;-0.10;99.90;;;;;;4956465;28;20031;-45
2023/12/04 10:20:56;;;;;;;24.15;14.55;;;-0.10;99.90;;;;;;4953602;28;20034;-47
2023/12/04 10:23:22;;;;;;;27.50;13.18;;;0.00;99.90;;;;;;4962597;28;20031;-47
2023/12/04 10:25:52;;;;;;;25.80;14.00;;;0.00;99.90;;;;;;4950618;28;20054;-50
2023/12/04 10:28:18;;;;;;;22.42;13.25;;;0.00;99.90;;;;;;4999799;28;20031;-49
2023/12/04 10:30:45;;;;;;;26.55;14.30;;;0.20;99.90;;;;;;4960970;28;20038;-49
2023/12/04 10:33:11;;;;;;;31.80;14.10;;;0.30;99.90;;;;;;4950590;28;20509;-49
2023/12/04 10:35:37;;;;;;;23.73;14.02;;;0.50;99.90;;;;;;4950495;28;20036;-50
2023/12/04 10:38:04;;;;;;;27.05;13.68;;;0.70;99.90;;;;;;4950509;28;20026;-48
2023/12/04 10:40:31;;;;;;;24.58;13.27;;;0.80;99.90;;;;;;4967802;28;20114;-53
2023/12/04 10:43:09;;;;;;;23.23;12.98;;;0.90;99.90;;;;;;4960041;28;20035;-45
2023/12/04 10:45:36;;;;;;;25.63;14.48;;;1.00;99.90;;;;;;4960271;28;20497;-43
2023/12/04 10:48:04;;;;;;;28.73;14.77;;;1.00;99.90;;;;;;4952084;28;20027;-43
2023/12/04 10:50:35;;;;;;;25.33;14.18;;;1.00;99.90;;;;;;4957202;28;20470;-48
2023/12/04 10:53:07;;;;;;;26.33;14.18;;;1.00;99.90;;;;;;4969592;28;20099;-50
2023/12/04 10:55:33;;;;;;;21.33;12.05;;;0.90;99.90;;;;;;4997728;28;20085;-49
2023/12/04 10:58:05;;;;;;;22.02;13.27;;;0.90;99.90;;;;;;4953560;28;20027;-46
2023/12/04 11:00:35;;;;;;;28.58;15.02;;;1.00;99.90;;;;;;4953888;28;20041;-46
2023/12/04 11:03:08;;;;;;;24.30;13.90;;;0.90;99.90;;;;;;4954421;28;20132;-48
2023/12/04 11:05:38;;;;;;;23.83;13.85;;;0.80;99.90;;;;;;4953485;29;20023;-45
2023/12/04 11:08:06;;;;;;;21.92;14.10;;;0.80;99.90;;;;;;4953565;29;20031;-46
2023/12/04 11:10:34;;;;;;;20.48;13.60;;;0.80;99.90;;;;;;4953201;29;20482;-47
2023/12/04 11:13:30;;;;;;;21.02;13.10;;;0.80;99.90;;;;;;4953351;28;20074;-49
2023/12/04 11:16:07;;;;;;;21.98;13.30;;;0.80;99.90;;;;;;4953598;29;20053;-46
2023/12/04 11:18:43;;;;;;;20.45;13.13;;;0.80;99.90;;;;;;4953330;29;20102;-48
2023/12/04 11:21:10;;;;;;;22.73;13.30;;;0.90;99.90;;;;;;4953024;28;20084;-47
2023/12/04 11:23:37;;;;;;;24.48;13.70;;;0.70;99.90;;;;;;4954295;29;20034;-44
2023/12/04 11:26:05;;;;;;;24.30;14.07;;;0.60;99.90;;;;;;4957785;28;20027;-44
2023/12/04 11:28:32;;;;;;;21.45;14.30;;;0.40;99.90;;;;;;4952957;28;20031;-47
2023/12/04 11:30:58;;;;;;;26.02;14.77;;;0.40;99.90;;;;;;4952698;28;20080;-48
2023/12/04 11:33:24;;;;;;;26.05;14.18;;;0.30;99.90;;;;;;4964804;28;20042;-43
2023/12/04 11:35:50;;;;;;;23.50;14.15;;;0.20;99.90;;;;;;4959848;28;20023;-45
2023/12/04 11:38:19;;;;;;;26.60;15.65;;;0.10;99.90;;;;;;4970387;28;20055;-50
2023/12/04 11:40:46;;;;;;;28.38;15.68;;;0.10;99.90;;;;;;5008636;28;20074;-39
2023/12/04 11:43:26;;;;;;;29.88;16.58;;;0.10;99.90;;;;;;4976397;28;20031;-45
2023/12/04 11:45:52;;;;;;;27.70;16.40;;;-0.10;99.90;;;;;;4965038;28;20028;-48
2023/12/04 11:48:25;;;;;;;28.35;16.17;;;-0.10;99.90;;;;;;4952933;29;20034;-42
2023/12/04 11:50:51;;;;;;;27.70;16.05;;;-0.10;99.90;;;;;;4964891;28;20105;-47
2023/12/04 11:53:16;;;;;;;30.42;17.55;;;-0.10;99.90;;;;;;4953838;28;20035;-42
2023/12/04 11:55:42;;;;;;;28.02;17.33;;;-0.20;99.90;;;;;;4960265;28;20038;-43
2023/12/04 11:58:12;;;;;;;29.13;17.35;;;;;;;;;;4972138;28;20133;-44
2023/12/04 12:00:38;;;;;;;35.25;18.90;;;-0.40;99.90;;;;;;4971304;28;20069;-48
2023/12/04 12:03:09;;;;;;;32.53;18.50;;;-0.40;99.90;;;;;;4953859;28;20106;-41
2023/12/04 12:05:36;;;;;;;28.83;18.45;;;-0.60;99.90;;;;;;4937456;28;20401;-46
2023/12/04 12:08:02;;;;;;;37.92;19.40;;;-0.50;99.90;;;;;;4967349;28;20440;-45
2023/12/04 12:10:28;;;;;;;33.85;19.33;;;-0.50;99.90;;;;;;4963326;28;20039;-44
2023/12/04 12:12:55;;;;;;;38.90;16.65;;;-0.50;99.90;;;;;;4959395;28;20046;-45
2023/12/04 12:15:20;;;;;;;27.75;17.17;;;-0.40;99.90;;;;;;4985909;28;20083;-47
2023/12/04 12:17:46;;;;;;;48.65;26.75;;;-0.40;99.90;;;;;;5005332;28;20037;-50
2023/12/04 12:20:14;;;;;;;59.97;31.30;;;-0.50;99.90;;;;;;5004129;22;20519;-53
2023/12/04 12:22:41;;;;;;;58.20;29.15;;;-0.50;99.90;;;;;;4970687;28;20019;-54
2023/12/04 12:25:08;;;;;;;28.83;16.73;;;-0.60;99.90;;;;;;4950741;28;20023;-50